sensor_id;sensor_type;location;lat;lon;timestamp;P1;durP1;ratioP1;P2;durP2;ratioP2
53503;SDS011;39387;50.998;22.340;2022-12-18T00:00:47;51.15;;;15.65;;
53503;SDS011;39387;50.998;22.340;2022-12-18T00:03:36;42.78;;;13.50;;
53503;SDS011;39387;50.998;22.340;2022-12-18T00:06:04;48.70;;;15.60;;
53503;SDS011;39387;50.998;22.340;2022-12-18T00:08:31;48.38;;;16.80;;
53503;SDS011;39387;50.998;22.340;2022-12-18T00:11:03;55.80;;;16.88;;
53503;SDS011;39387;50.998;22.340;2022-12-18T00:13:30;53.92;;;17.50;;
53503;SDS011;39387;50.998;22.340;2022-12-18T00:16:01;47.00;;;15.18;;
53503;SDS011;39387;50.998;22.340;2022-12-18T00:18:29;61.72;;;16.55;;
53503;SDS011;39387;50.998;22.340;2022-12-18T00:20:59;46.88;;;13.65;;
53503;SDS011;39387;50.998;22.340;2022-12-18T00:23:27;51.17;;;15.02;;
53503;SDS011;39387;50.998;22.340;2022-12-18T00:25:58;40.03;;;14.55;;
53503;SDS011;39387;50.998;22.340;2022-12-18T00:28:26;59.42;;;17.00;;
53503;SDS011;39387;50.998;22.340;2022-12-18T00:30:59;51.45;;;16.92;;
53503;SDS011;39387;50.998;22.340;2022-12-18T00:33:27;55.95;;;15.88;;
53503;SDS011;39387;50.998;22.340;2022-12-18T00:35:55;48.40;;;14.15;;
53503;SDS011;39387;50.998;22.340;2022-12-18T00:38:29;44.08;;;12.52;;
53503;SDS011;39387;50.998;22.340;2022-12-18T00:40:56;52.75;;;15.48;;
53503;SDS011;39387;50.998;22.340;2022-12-18T00:43:24;49.80;;;14.57;;
53503;SDS011;39387;50.998;22.340;2022-12-18T00:45:50;54.78;;;17.30;;
53503;SDS011;39387;50.998;22.340;2022-12-18T00:48:17;37.80;;;12.68;;
53503;SDS011;39387;50.998;22.340;2022-12-18T00:50:44;42.25;;;13.57;;
53503;SDS011;39387;50.998;22.340;2022-12-18T00:53:14;43.40;;;13.43;;
53503;SDS011;39387;50.998;22.340;2022-12-18T00:55:41;38.33;;;12.93;;
53503;SDS011;39387;50.998;22.340;2022-12-18T00:58:10;41.30;;;13.35;;
53503;SDS011;39387;50.998;22.340;2022-12-18T01:00:37;36.88;;;13.93;;
53503;SDS011;39387;50.998;22.340;2022-12-18T01:03:05;37.17;;;12.55;;
53503;SDS011;39387;50.998;22.340;2022-12-18T01:05:32;38.17;;;12.73;;
53503;SDS011;39387;50.998;22.340;2022-12-18T01:08:00;40.33;;;13.43;;
53503;SDS011;39387;50.998;22.340;2022-12-18T01:10:29;36.50;;;13.25;;
53503;SDS011;39387;50.998;22.340;2022-12-18T01:12:56;32.83;;;12.25;;
53503;SDS011;39387;50.998;22.340;2022-12-18T01:15:23;38.63;;;12.30;;
53503;SDS011;39387;50.998;22.340;2022-12-18T01:17:51;37.70;;;11.15;;
53503;SDS011;39387;50.998;22.340;2022-12-18T01:20:18;40.20;;;10.73;;
53503;SDS011;39387;50.998;22.340;2022-12-18T01:22:46;38.35;;;13.88;;
53503;SDS011;39387;50.998;22.340;2022-12-18T01:25:13;44.20;;;13.30;;
53503;SDS011;39387;50.998;22.340;2022-12-18T01:27:42;33.97;;;12.55;;
53503;SDS011;39387;50.998;22.340;2022-12-18T01:30:09;38.85;;;12.65;;
53503;SDS011;39387;50.998;22.340;2022-12-18T01:32:37;38.00;;;12.82;;
53503;SDS011;39387;50.998;22.340;2022-12-18T01:35:05;32.80;;;10.95;;
53503;SDS011;39387;50.998;22.340;2022-12-18T01:37:33;35.10;;;11.07;;
53503;SDS011;39387;50.998;22.340;2022-12-18T01:40:00;38.60;;;11.75;;
53503;SDS011;39387;50.998;22.340;2022-12-18T01:42:28;42.50;;;11.70;;
53503;SDS011;39387;50.998;22.340;2022-12-18T01:45:00;34.63;;;10.30;;
53503;SDS011;39387;50.998;22.340;2022-12-18T01:47:32;33.88;;;11.73;;
53503;SDS011;39387;50.998;22.340;2022-12-18T01:50:04;41.05;;;11.93;;
53503;SDS011;39387;50.998;22.340;2022-12-18T01:52:33;33.70;;;11.60;;
53503;SDS011;39387;50.998;22.340;2022-12-18T01:55:02;36.67;;;12.55;;
53503;SDS011;39387;50.998;22.340;2022-12-18T01:57:31;38.95;;;12.10;;
53503;SDS011;39387;50.998;22.340;2022-12-18T02:00:02;39.55;;;11.30;;
53503;SDS011;39387;50.998;22.340;2022-12-18T02:02:32;36.63;;;12.00;;
53503;SDS011;39387;50.998;22.340;2022-12-18T02:04:59;50.42;;;14.38;;
53503;SDS011;39387;50.998;22.340;2022-12-18T02:07:29;40.22;;;12.30;;
53503;SDS011;39387;50.998;22.340;2022-12-18T02:10:04;43.50;;;14.30;;
53503;SDS011;39387;50.998;22.340;2022-12-18T02:12:36;35.60;;;10.80;;
53503;SDS011;39387;50.998;22.340;2022-12-18T02:15:12;38.38;;;12.82;;
53503;SDS011;39387;50.998;22.340;2022-12-18T02:17:43;35.40;;;13.35;;
53503;SDS011;39387;50.998;22.340;2022-12-18T02:20:16;38.05;;;12.27;;
53503;SDS011;39387;50.998;22.340;2022-12-18T02:22:49;31.67;;;10.32;;
53503;SDS011;39387;50.998;22.340;2022-12-18T02:25:30;41.03;;;12.55;;
53503;SDS011;39387;50.998;22.340;2022-12-18T02:28:09;38.15;;;11.90;;
53503;SDS011;39387;50.998;22.340;2022-12-18T02:33:06;37.03;;;10.07;;
53503;SDS011;39387;50.998;22.340;2022-12-18T02:35:35;31.50;;;11.55;;
53503;SDS011;39387;50.998;22.340;2022-12-18T02:38:03;36.88;;;11.32;;
53503;SDS011;39387;50.998;22.340;2022-12-18T02:40:31;50.97;;;12.90;;
53503;SDS011;39387;50.998;22.340;2022-12-18T02:43:02;48.70;;;13.13;;
53503;SDS011;39387;50.998;22.340;2022-12-18T02:45:31;34.75;;;12.23;;
53503;SDS011;39387;50.998;22.340;2022-12-18T02:47:58;42.72;;;12.40;;
53503;SDS011;39387;50.998;22.340;2022-12-18T02:50:26;44.42;;;13.73;;
53503;SDS011;39387;50.998;22.340;2022-12-18T02:53:00;36.65;;;12.30;;
53503;SDS011;39387;50.998;22.340;2022-12-18T02:55:35;39.70;;;12.07;;
53503;SDS011;39387;50.998;22.340;2022-12-18T02:58:12;34.03;;;11.65;;
53503;SDS011;39387;50.998;22.340;2022-12-18T03:00:46;38.42;;;12.70;;
53503;SDS011;39387;50.998;22.340;2022-12-18T03:03:18;41.08;;;12.55;;
53503;SDS011;39387;50.998;22.340;2022-12-18T03:05:53;40.00;;;11.65;;
53503;SDS011;39387;50.998;22.340;2022-12-18T03:08:24;36.80;;;12.35;;
53503;SDS011;39387;50.998;22.340;2022-12-18T03:10:55;38.15;;;10.80;;
53503;SDS011;39387;50.998;22.340;2022-12-18T03:13:28;32.03;;;11.52;;
53503;SDS011;39387;50.998;22.340;2022-12-18T03:15:59;35.90;;;10.43;;
53503;SDS011;39387;50.998;22.340;2022-12-18T03:18:29;30.15;;;11.75;;
53503;SDS011;39387;50.998;22.340;2022-12-18T03:21:00;36.45;;;11.27;;
53503;SDS011;39387;50.998;22.340;2022-12-18T03:23:33;31.70;;;10.77;;
53503;SDS011;39387;50.998;22.340;2022-12-18T03:26:05;33.55;;;11.32;;
53503;SDS011;39387;50.998;22.340;2022-12-18T03:28:35;31.73;;;10.68;;
53503;SDS011;39387;50.998;22.340;2022-12-18T03:31:07;29.90;;;10.65;;
53503;SDS011;39387;50.998;22.340;2022-12-18T03:33:37;37.15;;;11.13;;
53503;SDS011;39387;50.998;22.340;2022-12-18T03:36:06;28.00;;;10.48;;
53503;SDS011;39387;50.998;22.340;2022-12-18T03:38:34;29.98;;;11.18;;
53503;SDS011;39387;50.998;22.340;2022-12-18T03:41:03;34.65;;;10.18;;
53503;SDS011;39387;50.998;22.340;2022-12-18T03:43:46;24.10;;;9.50;;
53503;SDS011;39387;50.998;22.340;2022-12-18T03:46:20;32.78;;;10.10;;
53503;SDS011;39387;50.998;22.340;2022-12-18T03:48:55;23.90;;;9.45;;
53503;SDS011;39387;50.998;22.340;2022-12-18T03:51:26;27.83;;;10.05;;
53503;SDS011;39387;50.998;22.340;2022-12-18T03:53:58;28.98;;;10.60;;
53503;SDS011;39387;50.998;22.340;2022-12-18T03:56:28;25.33;;;9.93;;
53503;SDS011;39387;50.998;22.340;2022-12-18T03:58:58;22.75;;;9.23;;
53503;SDS011;39387;50.998;22.340;2022-12-18T04:01:28;27.77;;;9.88;;
53503;SDS011;39387;50.998;22.340;2022-12-18T04:03:58;27.00;;;9.18;;
53503;SDS011;39387;50.998;22.340;2022-12-18T04:06:27;25.23;;;10.38;;
53503;SDS011;39387;50.998;22.340;2022-12-18T04:08:55;28.25;;;9.65;;
53503;SDS011;39387;50.998;22.340;2022-12-18T04:11:23;24.60;;;8.82;;
53503;SDS011;39387;50.998;22.340;2022-12-18T04:13:50;24.55;;;9.15;;
53503;SDS011;39387;50.998;22.340;2022-12-18T04:16:22;20.80;;;8.30;;
53503;SDS011;39387;50.998;22.340;2022-12-18T04:18:51;27.70;;;11.10;;
53503;SDS011;39387;50.998;22.340;2022-12-18T04:21:18;24.60;;;9.40;;
53503;SDS011;39387;50.998;22.340;2022-12-18T04:23:46;21.15;;;8.93;;
53503;SDS011;39387;50.998;22.340;2022-12-18T04:26:13;21.30;;;8.50;;
53503;SDS011;39387;50.998;22.340;2022-12-18T04:28:41;19.85;;;7.80;;
53503;SDS011;39387;50.998;22.340;2022-12-18T04:31:08;22.35;;;8.27;;
53503;SDS011;39387;50.998;22.340;2022-12-18T04:33:35;23.38;;;8.38;;
53503;SDS011;39387;50.998;22.340;2022-12-18T04:36:04;25.67;;;10.15;;
53503;SDS011;39387;50.998;22.340;2022-12-18T04:38:32;21.92;;;7.95;;
53503;SDS011;39387;50.998;22.340;2022-12-18T04:40:59;27.02;;;9.73;;
53503;SDS011;39387;50.998;22.340;2022-12-18T04:43:26;21.67;;;8.40;;
53503;SDS011;39387;50.998;22.340;2022-12-18T04:45:53;21.20;;;7.65;;
53503;SDS011;39387;50.998;22.340;2022-12-18T04:48:29;23.95;;;9.82;;
53503;SDS011;39387;50.998;22.340;2022-12-18T04:50:56;25.45;;;8.60;;
53503;SDS011;39387;50.998;22.340;2022-12-18T04:53:24;26.38;;;8.45;;
53503;SDS011;39387;50.998;22.340;2022-12-18T04:56:01;24.70;;;8.18;;
53503;SDS011;39387;50.998;22.340;2022-12-18T04:58:30;22.55;;;8.32;;
53503;SDS011;39387;50.998;22.340;2022-12-18T05:00:57;24.83;;;8.73;;
53503;SDS011;39387;50.998;22.340;2022-12-18T05:03:24;21.27;;;8.45;;
53503;SDS011;39387;50.998;22.340;2022-12-18T05:05:52;26.02;;;8.77;;
53503;SDS011;39387;50.998;22.340;2022-12-18T05:08:19;21.25;;;7.07;;
53503;SDS011;39387;50.998;22.340;2022-12-18T05:10:48;24.98;;;8.82;;
53503;SDS011;39387;50.998;22.340;2022-12-18T05:13:15;24.05;;;8.57;;
53503;SDS011;39387;50.998;22.340;2022-12-18T05:15:42;22.45;;;9.07;;
53503;SDS011;39387;50.998;22.340;2022-12-18T05:18:18;29.50;;;9.10;;
53503;SDS011;39387;50.998;22.340;2022-12-18T05:20:45;18.98;;;8.40;;
53503;SDS011;39387;50.998;22.340;2022-12-18T05:23:13;19.63;;;8.32;;
53503;SDS011;39387;50.998;22.340;2022-12-18T05:25:40;28.98;;;9.20;;
53503;SDS011;39387;50.998;22.340;2022-12-18T05:28:08;22.17;;;8.45;;
53503;SDS011;39387;50.998;22.340;2022-12-18T05:30:36;25.63;;;8.25;;
53503;SDS011;39387;50.998;22.340;2022-12-18T05:33:03;25.60;;;8.65;;
53503;SDS011;39387;50.998;22.340;2022-12-18T05:35:30;20.02;;;7.78;;
53503;SDS011;39387;50.998;22.340;2022-12-18T05:37:58;30.05;;;9.38;;
53503;SDS011;39387;50.998;22.340;2022-12-18T05:40:25;18.02;;;8.57;;
53503;SDS011;39387;50.998;22.340;2022-12-18T05:42:52;18.77;;;8.10;;
53503;SDS011;39387;50.998;22.340;2022-12-18T05:45:21;27.42;;;9.88;;
53503;SDS011;39387;50.998;22.340;2022-12-18T05:47:49;27.20;;;9.82;;
53503;SDS011;39387;50.998;22.340;2022-12-18T05:50:16;26.48;;;8.15;;
53503;SDS011;39387;50.998;22.340;2022-12-18T05:52:43;23.23;;;9.40;;
53503;SDS011;39387;50.998;22.340;2022-12-18T05:55:10;26.05;;;10.32;;
53503;SDS011;39387;50.998;22.340;2022-12-18T05:57:38;19.00;;;8.23;;
53503;SDS011;39387;50.998;22.340;2022-12-18T06:00:05;23.77;;;9.40;;
53503;SDS011;39387;50.998;22.340;2022-12-18T06:02:35;18.27;;;8.05;;
53503;SDS011;39387;50.998;22.340;2022-12-18T06:05:02;20.23;;;6.82;;
53503;SDS011;39387;50.998;22.340;2022-12-18T06:07:30;18.35;;;7.43;;
53503;SDS011;39387;50.998;22.340;2022-12-18T06:09:57;20.50;;;8.32;;
53503;SDS011;39387;50.998;22.340;2022-12-18T06:12:25;28.35;;;10.38;;
53503;SDS011;39387;50.998;22.340;2022-12-18T06:14:52;21.15;;;9.23;;
53503;SDS011;39387;50.998;22.340;2022-12-18T06:17:19;35.20;;;11.23;;
53503;SDS011;39387;50.998;22.340;2022-12-18T06:19:48;33.67;;;12.20;;
53503;SDS011;39387;50.998;22.340;2022-12-18T06:22:15;36.53;;;12.60;;
53503;SDS011;39387;50.998;22.340;2022-12-18T06:24:43;35.28;;;13.50;;
53503;SDS011;39387;50.998;22.340;2022-12-18T06:27:11;35.33;;;12.85;;
53503;SDS011;39387;50.998;22.340;2022-12-18T06:29:38;41.25;;;13.98;;
53503;SDS011;39387;50.998;22.340;2022-12-18T06:32:05;27.23;;;11.05;;
53503;SDS011;39387;50.998;22.340;2022-12-18T06:34:33;28.05;;;11.00;;
53503;SDS011;39387;50.998;22.340;2022-12-18T06:37:02;26.73;;;9.65;;
53503;SDS011;39387;50.998;22.340;2022-12-18T06:39:29;29.70;;;10.45;;
53503;SDS011;39387;50.998;22.340;2022-12-18T06:41:56;29.77;;;9.40;;
53503;SDS011;39387;50.998;22.340;2022-12-18T06:44:24;23.60;;;9.02;;
53503;SDS011;39387;50.998;22.340;2022-12-18T06:46:51;21.08;;;8.05;;
53503;SDS011;39387;50.998;22.340;2022-12-18T06:49:18;28.60;;;10.73;;
53503;SDS011;39387;50.998;22.340;2022-12-18T06:51:46;23.23;;;8.65;;
53503;SDS011;39387;50.998;22.340;2022-12-18T06:54:15;22.88;;;9.75;;
53503;SDS011;39387;50.998;22.340;2022-12-18T06:56:44;17.75;;;8.50;;
53503;SDS011;39387;50.998;22.340;2022-12-18T06:59:11;19.33;;;8.70;;
53503;SDS011;39387;50.998;22.340;2022-12-18T07:01:39;25.17;;;11.02;;
53503;SDS011;39387;50.998;22.340;2022-12-18T07:04:06;25.10;;;8.95;;
53503;SDS011;39387;50.998;22.340;2022-12-18T07:06:34;26.17;;;10.02;;
53503;SDS011;39387;50.998;22.340;2022-12-18T07:09:01;26.10;;;9.95;;
53503;SDS011;39387;50.998;22.340;2022-12-18T07:11:31;27.58;;;10.57;;
53503;SDS011;39387;50.998;22.340;2022-12-18T07:13:59;25.55;;;8.50;;
53503;SDS011;39387;50.998;22.340;2022-12-18T07:16:26;24.45;;;8.48;;
53503;SDS011;39387;50.998;22.340;2022-12-18T07:18:54;23.80;;;9.07;;
53503;SDS011;39387;50.998;22.340;2022-12-18T07:21:23;27.35;;;10.38;;
53503;SDS011;39387;50.998;22.340;2022-12-18T07:23:50;25.30;;;9.80;;
53503;SDS011;39387;50.998;22.340;2022-12-18T07:26:18;26.20;;;10.35;;
53503;SDS011;39387;50.998;22.340;2022-12-18T07:28:48;22.13;;;8.50;;
53503;SDS011;39387;50.998;22.340;2022-12-18T07:31:16;27.85;;;10.15;;
53503;SDS011;39387;50.998;22.340;2022-12-18T07:33:45;28.00;;;10.18;;
53503;SDS011;39387;50.998;22.340;2022-12-18T07:36:13;31.08;;;10.43;;
53503;SDS011;39387;50.998;22.340;2022-12-18T07:38:40;26.13;;;9.88;;
53503;SDS011;39387;50.998;22.340;2022-12-18T07:41:08;26.95;;;10.05;;
53503;SDS011;39387;50.998;22.340;2022-12-18T07:43:36;28.13;;;9.50;;
53503;SDS011;39387;50.998;22.340;2022-12-18T07:46:06;21.83;;;9.07;;
53503;SDS011;39387;50.998;22.340;2022-12-18T07:48:33;22.08;;;8.98;;
53503;SDS011;39387;50.998;22.340;2022-12-18T07:51:01;23.20;;;8.05;;
53503;SDS011;39387;50.998;22.340;2022-12-18T07:53:29;25.23;;;9.77;;
53503;SDS011;39387;50.998;22.340;2022-12-18T07:55:57;21.10;;;8.20;;
53503;SDS011;39387;50.998;22.340;2022-12-18T07:58:25;23.45;;;8.13;;
53503;SDS011;39387;50.998;22.340;2022-12-18T08:00:52;24.17;;;8.20;;
53503;SDS011;39387;50.998;22.340;2022-12-18T08:03:21;23.95;;;8.68;;
53503;SDS011;39387;50.998;22.340;2022-12-18T08:05:48;21.88;;;8.52;;
53503;SDS011;39387;50.998;22.340;2022-12-18T08:08:15;22.55;;;7.20;;
53503;SDS011;39387;50.998;22.340;2022-12-18T08:10:43;21.45;;;7.97;;
53503;SDS011;39387;50.998;22.340;2022-12-18T08:13:10;25.77;;;7.53;;
53503;SDS011;39387;50.998;22.340;2022-12-18T08:15:37;16.88;;;6.50;;
53503;SDS011;39387;50.998;22.340;2022-12-18T08:18:04;18.77;;;6.97;;
53503;SDS011;39387;50.998;22.340;2022-12-18T08:20:33;18.58;;;6.32;;
53503;SDS011;39387;50.998;22.340;2022-12-18T08:23:00;18.10;;;6.88;;
53503;SDS011;39387;50.998;22.340;2022-12-18T08:25:28;19.00;;;7.18;;
53503;SDS011;39387;50.998;22.340;2022-12-18T08:27:55;19.58;;;7.32;;
53503;SDS011;39387;50.998;22.340;2022-12-18T08:30:23;18.52;;;7.18;;
53503;SDS011;39387;50.998;22.340;2022-12-18T08:32:51;20.85;;;7.40;;
53503;SDS011;39387;50.998;22.340;2022-12-18T08:35:19;24.17;;;8.45;;
53503;SDS011;39387;50.998;22.340;2022-12-18T08:37:48;19.52;;;7.22;;
53503;SDS011;39387;50.998;22.340;2022-12-18T08:40:15;19.40;;;7.72;;
53503;SDS011;39387;50.998;22.340;2022-12-18T08:42:43;21.02;;;8.05;;
53503;SDS011;39387;50.998;22.340;2022-12-18T08:45:27;22.25;;;7.82;;
53503;SDS011;39387;50.998;22.340;2022-12-18T08:47:54;20.38;;;8.70;;
53503;SDS011;39387;50.998;22.340;2022-12-18T08:50:22;18.73;;;7.53;;
53503;SDS011;39387;50.998;22.340;2022-12-18T08:52:51;22.35;;;7.88;;
53503;SDS011;39387;50.998;22.340;2022-12-18T08:55:18;21.65;;;9.45;;
53503;SDS011;39387;50.998;22.340;2022-12-18T08:57:47;21.98;;;7.68;;
53503;SDS011;39387;50.998;22.340;2022-12-18T09:00:15;23.30;;;8.30;;
53503;SDS011;39387;50.998;22.340;2022-12-18T09:02:43;22.42;;;8.38;;
53503;SDS011;39387;50.998;22.340;2022-12-18T09:05:11;21.00;;;7.65;;
53503;SDS011;39387;50.998;22.340;2022-12-18T09:07:38;17.50;;;6.90;;
53503;SDS011;39387;50.998;22.340;2022-12-18T09:10:07;16.23;;;7.40;;
53503;SDS011;39387;50.998;22.340;2022-12-18T09:12:34;18.23;;;6.40;;
53503;SDS011;39387;50.998;22.340;2022-12-18T09:15:02;18.25;;;7.78;;
53503;SDS011;39387;50.998;22.340;2022-12-18T09:17:29;20.48;;;6.93;;
53503;SDS011;39387;50.998;22.340;2022-12-18T09:19:57;17.20;;;6.95;;
53503;SDS011;39387;50.998;22.340;2022-12-18T09:22:24;30.02;;;9.98;;
53503;SDS011;39387;50.998;22.340;2022-12-18T09:24:52;33.53;;;11.75;;
53503;SDS011;39387;50.998;22.340;2022-12-18T09:27:20;17.73;;;8.32;;
53503;SDS011;39387;50.998;22.340;2022-12-18T09:29:48;18.50;;;7.20;;
53503;SDS011;39387;50.998;22.340;2022-12-18T09:32:15;35.97;;;11.77;;
53503;SDS011;39387;50.998;22.340;2022-12-18T09:34:43;26.42;;;9.77;;
53503;SDS011;39387;50.998;22.340;2022-12-18T09:37:10;17.58;;;7.35;;
53503;SDS011;39387;50.998;22.340;2022-12-18T09:39:37;48.33;;;15.68;;
53503;SDS011;39387;50.998;22.340;2022-12-18T09:42:05;47.65;;;16.17;;
53503;SDS011;39387;50.998;22.340;2022-12-18T09:44:35;41.95;;;13.30;;
53503;SDS011;39387;50.998;22.340;2022-12-18T09:47:07;29.13;;;9.25;;
53503;SDS011;39387;50.998;22.340;2022-12-18T09:49:40;32.03;;;11.07;;
53503;SDS011;39387;50.998;22.340;2022-12-18T09:52:11;25.98;;;10.40;;
53503;SDS011;39387;50.998;22.340;2022-12-18T09:54:42;40.10;;;14.75;;
53503;SDS011;39387;50.998;22.340;2022-12-18T09:57:12;28.02;;;10.23;;
53503;SDS011;39387;50.998;22.340;2022-12-18T09:59:43;35.72;;;12.55;;
53503;SDS011;39387;50.998;22.340;2022-12-18T10:02:15;26.90;;;10.40;;
53503;SDS011;39387;50.998;22.340;2022-12-18T10:04:43;25.92;;;9.90;;
53503;SDS011;39387;50.998;22.340;2022-12-18T10:07:17;24.40;;;10.02;;
53503;SDS011;39387;50.998;22.340;2022-12-18T10:09:51;16.50;;;7.80;;
53503;SDS011;39387;50.998;22.340;2022-12-18T10:12:24;23.13;;;8.55;;
53503;SDS011;39387;50.998;22.340;2022-12-18T10:15:00;25.88;;;10.05;;
53503;SDS011;39387;50.998;22.340;2022-12-18T10:17:32;68.38;;;26.38;;
53503;SDS011;39387;50.998;22.340;2022-12-18T10:20:09;59.63;;;22.77;;
53503;SDS011;39387;50.998;22.340;2022-12-18T10:22:42;26.10;;;10.40;;
53503;SDS011;39387;50.998;22.340;2022-12-18T10:25:16;104.60;;;40.97;;
53503;SDS011;39387;50.998;22.340;2022-12-18T10:27:47;83.95;;;36.38;;
53503;SDS011;39387;50.998;22.340;2022-12-18T10:30:18;32.15;;;14.55;;
53503;SDS011;39387;50.998;22.340;2022-12-18T10:32:46;16.15;;;8.27;;
53503;SDS011;39387;50.998;22.340;2022-12-18T10:35:15;19.83;;;8.10;;
53503;SDS011;39387;50.998;22.340;2022-12-18T10:38:02;24.63;;;9.05;;
53503;SDS011;39387;50.998;22.340;2022-12-18T10:40:32;23.42;;;6.90;;
53503;SDS011;39387;50.998;22.340;2022-12-18T10:43:03;20.80;;;7.53;;
53503;SDS011;39387;50.998;22.340;2022-12-18T10:45:33;21.15;;;8.35;;
53503;SDS011;39387;50.998;22.340;2022-12-18T10:48:00;17.88;;;7.43;;
53503;SDS011;39387;50.998;22.340;2022-12-18T10:50:29;18.25;;;7.13;;
53503;SDS011;39387;50.998;22.340;2022-12-18T10:52:58;18.00;;;6.83;;
53503;SDS011;39387;50.998;22.340;2022-12-18T10:55:29;18.60;;;7.20;;
53503;SDS011;39387;50.998;22.340;2022-12-18T10:58:12;19.85;;;7.72;;
53503;SDS011;39387;50.998;22.340;2022-12-18T11:00:43;17.50;;;6.63;;
53503;SDS011;39387;50.998;22.340;2022-12-18T11:06:02;16.40;;;6.18;;
53503;SDS011;39387;50.998;22.340;2022-12-18T11:08:31;12.68;;;6.13;;
53503;SDS011;39387;50.998;22.340;2022-12-18T11:10:58;17.10;;;6.55;;
53503;SDS011;39387;50.998;22.340;2022-12-18T11:13:26;14.27;;;6.25;;
53503;SDS011;39387;50.998;22.340;2022-12-18T11:15:56;13.18;;;6.47;;
53503;SDS011;39387;50.998;22.340;2022-12-18T11:18:25;16.27;;;6.38;;
53503;SDS011;39387;50.998;22.340;2022-12-18T11:20:54;15.30;;;6.07;;
53503;SDS011;39387;50.998;22.340;2022-12-18T11:23:24;16.60;;;6.15;;
53503;SDS011;39387;50.998;22.340;2022-12-18T11:25:53;16.02;;;6.57;;
53503;SDS011;39387;50.998;22.340;2022-12-18T11:28:27;19.07;;;7.57;;
53503;SDS011;39387;50.998;22.340;2022-12-18T11:31:16;17.80;;;6.65;;
53503;SDS011;39387;50.998;22.340;2022-12-18T11:33:47;15.40;;;6.40;;
53503;SDS011;39387;50.998;22.340;2022-12-18T11:36:18;16.65;;;7.10;;
53503;SDS011;39387;50.998;22.340;2022-12-18T11:38:46;16.80;;;7.07;;
53503;SDS011;39387;50.998;22.340;2022-12-18T11:41:15;23.40;;;8.45;;
53503;SDS011;39387;50.998;22.340;2022-12-18T11:43:48;19.52;;;7.80;;
53503;SDS011;39387;50.998;22.340;2022-12-18T11:46:23;20.45;;;7.35;;
53503;SDS011;39387;50.998;22.340;2022-12-18T11:48:54;24.25;;;8.13;;
53503;SDS011;39387;50.998;22.340;2022-12-18T11:51:26;22.10;;;8.45;;
53503;SDS011;39387;50.998;22.340;2022-12-18T11:53:56;26.83;;;9.27;;
53503;SDS011;39387;50.998;22.340;2022-12-18T11:56:27;30.58;;;12.00;;
53503;SDS011;39387;50.998;22.340;2022-12-18T11:58:59;16.63;;;7.80;;
53503;SDS011;39387;50.998;22.340;2022-12-18T12:01:38;19.85;;;8.15;;
53503;SDS011;39387;50.998;22.340;2022-12-18T12:04:15;20.73;;;8.80;;
53503;SDS011;39387;50.998;22.340;2022-12-18T12:06:53;18.85;;;6.95;;
53503;SDS011;39387;50.998;22.340;2022-12-18T12:09:28;18.05;;;7.55;;
53503;SDS011;39387;50.998;22.340;2022-12-18T12:12:10;18.27;;;7.40;;
53503;SDS011;39387;50.998;22.340;2022-12-18T12:14:49;16.25;;;6.03;;
53503;SDS011;39387;50.998;22.340;2022-12-18T12:17:24;17.20;;;7.25;;
53503;SDS011;39387;50.998;22.340;2022-12-18T12:20:00;16.63;;;6.72;;
53503;SDS011;39387;50.998;22.340;2022-12-18T12:22:32;18.42;;;6.15;;
53503;SDS011;39387;50.998;22.340;2022-12-18T12:25:05;17.95;;;6.80;;
53503;SDS011;39387;50.998;22.340;2022-12-18T12:27:46;18.98;;;7.40;;
53503;SDS011;39387;50.998;22.340;2022-12-18T12:30:18;13.73;;;6.88;;
53503;SDS011;39387;50.998;22.340;2022-12-18T12:32:57;17.90;;;6.63;;
53503;SDS011;39387;50.998;22.340;2022-12-18T12:38:10;18.48;;;6.78;;
53503;SDS011;39387;50.998;22.340;2022-12-18T12:40:41;26.40;;;9.30;;
53503;SDS011;39387;50.998;22.340;2022-12-18T12:43:15;29.05;;;9.07;;
53503;SDS011;39387;50.998;22.340;2022-12-18T12:45:57;37.17;;;14.15;;
53503;SDS011;39387;50.998;22.340;2022-12-18T12:48:33;29.10;;;10.82;;
53503;SDS011;39387;50.998;22.340;2022-12-18T12:51:06;23.05;;;8.45;;
53503;SDS011;39387;50.998;22.340;2022-12-18T12:53:37;20.17;;;7.70;;
53503;SDS011;39387;50.998;22.340;2022-12-18T12:56:06;16.70;;;7.25;;
53503;SDS011;39387;50.998;22.340;2022-12-18T12:58:36;18.42;;;7.72;;
53503;SDS011;39387;50.998;22.340;2022-12-18T13:01:10;19.77;;;7.95;;
53503;SDS011;39387;50.998;22.340;2022-12-18T13:03:48;18.30;;;7.60;;
53503;SDS011;39387;50.998;22.340;2022-12-18T13:06:23;16.50;;;7.35;;
53503;SDS011;39387;50.998;22.340;2022-12-18T13:08:56;19.25;;;8.30;;
53503;SDS011;39387;50.998;22.340;2022-12-18T13:11:32;22.20;;;9.60;;
53503;SDS011;39387;50.998;22.340;2022-12-18T13:14:22;17.48;;;8.05;;
53503;SDS011;39387;50.998;22.340;2022-12-18T13:16:51;21.13;;;8.50;;
53503;SDS011;39387;50.998;22.340;2022-12-18T13:19:23;20.10;;;8.70;;
53503;SDS011;39387;50.998;22.340;2022-12-18T13:21:53;19.35;;;8.30;;
53503;SDS011;39387;50.998;22.340;2022-12-18T13:24:23;17.55;;;7.30;;
53503;SDS011;39387;50.998;22.340;2022-12-18T13:26:52;21.73;;;8.00;;
53503;SDS011;39387;50.998;22.340;2022-12-18T13:32:19;22.77;;;7.25;;
53503;SDS011;39387;50.998;22.340;2022-12-18T13:34:49;13.25;;;5.80;;
53503;SDS011;39387;50.998;22.340;2022-12-18T13:37:41;19.50;;;7.78;;
53503;SDS011;39387;50.998;22.340;2022-12-18T13:43:29;13.95;;;6.38;;
53503;SDS011;39387;50.998;22.340;2022-12-18T13:45:59;20.73;;;8.15;;
53503;SDS011;39387;50.998;22.340;2022-12-18T13:48:29;21.33;;;7.22;;
53503;SDS011;39387;50.998;22.340;2022-12-18T13:51:00;18.90;;;7.63;;
53503;SDS011;39387;50.998;22.340;2022-12-18T13:53:31;22.83;;;9.85;;
53503;SDS011;39387;50.998;22.340;2022-12-18T13:56:01;34.83;;;12.98;;
53503;SDS011;39387;50.998;22.340;2022-12-18T13:58:29;16.48;;;7.10;;
53503;SDS011;39387;50.998;22.340;2022-12-18T14:00:57;15.02;;;6.45;;
53503;SDS011;39387;50.998;22.340;2022-12-18T14:03:25;24.58;;;8.50;;
53503;SDS011;39387;50.998;22.340;2022-12-18T14:05:58;20.77;;;8.20;;
53503;SDS011;39387;50.998;22.340;2022-12-18T14:08:32;21.08;;;8.23;;
53503;SDS011;39387;50.998;22.340;2022-12-18T14:11:01;13.55;;;7.03;;
53503;SDS011;39387;50.998;22.340;2022-12-18T14:13:31;22.27;;;9.15;;
53503;SDS011;39387;50.998;22.340;2022-12-18T14:16:00;21.27;;;8.88;;
53503;SDS011;39387;50.998;22.340;2022-12-18T14:18:29;85.18;;;24.48;;
53503;SDS011;39387;50.998;22.340;2022-12-18T14:21:02;25.10;;;10.48;;
53503;SDS011;39387;50.998;22.340;2022-12-18T14:23:32;27.90;;;10.13;;
53503;SDS011;39387;50.998;22.340;2022-12-18T14:26:00;29.27;;;9.75;;
53503;SDS011;39387;50.998;22.340;2022-12-18T14:28:28;23.65;;;8.85;;
53503;SDS011;39387;50.998;22.340;2022-12-18T14:30:56;26.73;;;10.25;;
53503;SDS011;39387;50.998;22.340;2022-12-18T14:33:24;27.88;;;12.35;;
53503;SDS011;39387;50.998;22.340;2022-12-18T14:35:53;29.70;;;11.10;;
53503;SDS011;39387;50.998;22.340;2022-12-18T14:38:26;31.95;;;10.52;;
53503;SDS011;39387;50.998;22.340;2022-12-18T14:40:56;26.65;;;10.20;;
53503;SDS011;39387;50.998;22.340;2022-12-18T14:43:24;27.58;;;10.27;;
53503;SDS011;39387;50.998;22.340;2022-12-18T14:45:52;37.88;;;14.00;;